SAM317 KADW-KADW
Flight info
| Callsign | SAM317 |
|---|---|
| Flight time | 0h 16m |
| Altitude | 5000 |
| Route | DEALE |
| Aircraft | B752/M-SDE2E3FGHIJ3J4J7RWXY/LB1 |
Departure
| Time | 2026-04-29 21:12 |
|---|---|
| Airport | Joint Base Andrews (KADW) |
Arrival
| Time | 2026-04-29 21:29 |
|---|---|
| Airport | Joint Base Andrews (KADW) |
| Time | Latitude | Longitude | Altitude | Speed | Heading |
|---|---|---|---|---|---|
| 2026-04-29 21:03 | 38.80685 | -76.87719 | 273 ft | 0 kts | 1° |
| 2026-04-29 21:08 | 38.80700 | -76.87718 | 273 ft | 7 kts | 7° |
| 2026-04-29 21:08 | 38.80736 | -76.87587 | 271 ft | 27 kts | 91° |
| 2026-04-29 21:08 | 38.80658 | -76.87438 | 268 ft | 20 kts | 180° |
| 2026-04-29 21:08 | 38.80585 | -76.87441 | 268 ft | 0 kts | 180° |
| 2026-04-29 21:09 | 38.80580 | -76.87449 | 268 ft | 1 kts | 293° |
| 2026-04-29 21:09 | 38.80745 | -76.87444 | 268 ft | 41 kts | 0° |
| 2026-04-29 21:09 | 38.81051 | -76.87446 | 268 ft | 47 kts | 358° |
| 2026-04-29 21:09 | 38.81386 | -76.87445 | 268 ft | 46 kts | 360° |
| 2026-04-29 21:10 | 38.81700 | -76.87447 | 269 ft | 44 kts | 359° |
| 2026-04-29 21:10 | 38.81971 | -76.87444 | 273 ft | 15 kts | 12° |
| 2026-04-29 21:10 | 38.82005 | -76.87403 | 272 ft | 0 kts | 70° |
| 2026-04-29 21:10 | 38.82006 | -76.87401 | 272 ft | 0 kts | 75° |
| 2026-04-29 21:11 | 38.82006 | -76.87400 | 272 ft | 0 kts | 76° |
| 2026-04-29 21:11 | 38.82007 | -76.87334 | 272 ft | 17 kts | 99° |
| 2026-04-29 21:11 | 38.81885 | -76.87185 | 273 ft | 32 kts | 152° |
| 2026-04-29 21:11 | 38.81615 | -76.87080 | 270 ft | 64 kts | 176° |
| 2026-04-29 21:12 | 38.80862 | -76.87053 | 267 ft | 147 kts | 179° |
| 2026-04-29 21:12 | 38.79652 | -76.87027 | 568 ft | 194 kts | 177° |
| 2026-04-29 21:12 | 38.78205 | -76.86983 | 1305 ft | 223 kts | 178° |
| 2026-04-29 21:12 | 38.76585 | -76.86957 | 1973 ft | 240 kts | 179° |
| 2026-04-29 21:13 | 38.74911 | -76.86928 | 2602 ft | 244 kts | 179° |
| 2026-04-29 21:13 | 38.73175 | -76.86898 | 2864 ft | 254 kts | 179° |
| 2026-04-29 21:13 | 38.71459 | -76.86579 | 2848 ft | 249 kts | 157° |
| 2026-04-29 21:13 | 38.70078 | -76.85240 | 2879 ft | 252 kts | 128° |
| 2026-04-29 21:14 | 38.69408 | -76.83155 | 2876 ft | 261 kts | 99° |
| 2026-04-29 21:14 | 38.69632 | -76.80858 | 2874 ft | 269 kts | 70° |
| 2026-04-29 21:14 | 38.70691 | -76.78874 | 2878 ft | 275 kts | 49° |
| 2026-04-29 21:14 | 38.72042 | -76.77111 | 2848 ft | 275 kts | 48° |
| 2026-04-29 21:15 | 38.73368 | -76.75361 | 2851 ft | 274 kts | 49° |
| 2026-04-29 21:15 | 38.74608 | -76.73539 | 2853 ft | 272 kts | 58° |
| 2026-04-29 21:15 | 38.75560 | -76.71442 | 2863 ft | 269 kts | 68° |
| 2026-04-29 21:15 | 38.76287 | -76.69241 | 2846 ft | 267 kts | 73° |
| 2026-04-29 21:16 | 38.76904 | -76.66991 | 2848 ft | 268 kts | 76° |
| 2026-04-29 21:16 | 38.77448 | -76.64714 | 2848 ft | 268 kts | 77° |
| 2026-04-29 21:16 | 38.77944 | -76.62447 | 2845 ft | 266 kts | 79° |
| 2026-04-29 21:16 | 38.78077 | -76.60128 | 2868 ft | 259 kts | 105° |
| 2026-04-29 21:17 | 38.77352 | -76.58060 | 2879 ft | 252 kts | 133° |
| 2026-04-29 21:17 | 38.75962 | -76.56709 | 2874 ft | 249 kts | 160° |
| 2026-04-29 21:17 | 38.74281 | -76.56360 | 2872 ft | 246 kts | 186° |
| 2026-04-29 21:17 | 38.72658 | -76.57047 | 2875 ft | 249 kts | 211° |
| 2026-04-29 21:18 | 38.71455 | -76.58636 | 2874 ft | 254 kts | 238° |
| 2026-04-29 21:18 | 38.70962 | -76.60810 | 2877 ft | 262 kts | 266° |
| 2026-04-29 21:18 | 38.71361 | -76.63103 | 2886 ft | 271 kts | 296° |
| 2026-04-29 21:18 | 38.72634 | -76.64902 | 2890 ft | 277 kts | 327° |
| 2026-04-29 21:19 | 38.74451 | -76.65694 | 2881 ft | 281 kts | 354° |
| 2026-04-29 21:19 | 38.76436 | -76.65783 | 2854 ft | 283 kts | 359° |
| 2026-04-29 21:19 | 38.78397 | -76.65814 | 2849 ft | 280 kts | 359° |
| 2026-04-29 21:19 | 38.80338 | -76.65846 | 2856 ft | 281 kts | 359° |
| 2026-04-29 21:20 | 38.82317 | -76.65868 | 2857 ft | 280 kts | 359° |
| 2026-04-29 21:20 | 38.84256 | -76.65891 | 2853 ft | 280 kts | 359° |
| 2026-04-29 21:20 | 38.86178 | -76.66293 | 2866 ft | 278 kts | 335° |
| 2026-04-29 21:20 | 38.87905 | -76.67410 | 2866 ft | 278 kts | 329° |
| 2026-04-29 21:21 | 38.89585 | -76.68594 | 2852 ft | 278 kts | 329° |
| 2026-04-29 21:21 | 38.91258 | -76.69765 | 2836 ft | 267 kts | 329° |
| 2026-04-29 21:21 | 38.92849 | -76.70871 | 2745 ft | 255 kts | 329° |
| 2026-04-29 21:21 | 38.94425 | -76.71971 | 2088 ft | 259 kts | 329° |
| 2026-04-29 21:22 | 38.95957 | -76.73059 | 1826 ft | 244 kts | 329° |
| 2026-04-29 21:22 | 38.97376 | -76.74070 | 1818 ft | 222 kts | 329° |
| 2026-04-29 21:22 | 38.98739 | -76.75032 | 1866 ft | 226 kts | 328° |
| 2026-04-29 21:22 | 39.00130 | -76.76015 | 1849 ft | 229 kts | 329° |
| 2026-04-29 21:23 | 39.01479 | -76.77049 | 1866 ft | 223 kts | 313° |
| 2026-04-29 21:23 | 39.02301 | -76.78645 | 1905 ft | 215 kts | 279° |
| 2026-04-29 21:23 | 39.02506 | -76.80546 | 1863 ft | 212 kts | 269° |
| 2026-04-29 21:23 | 39.02618 | -76.82426 | 1851 ft | 210 kts | 269° |
| 2026-04-29 21:24 | 39.02522 | -76.84266 | 1858 ft | 202 kts | 242° |
| 2026-04-29 21:24 | 39.01694 | -76.85627 | 1897 ft | 197 kts | 213° |
| 2026-04-29 21:24 | 39.00458 | -76.86294 | 1867 ft | 189 kts | 182° |
| 2026-04-29 21:24 | 38.99186 | -76.86314 | 1837 ft | 176 kts | 180° |
| 2026-04-29 21:25 | 38.97996 | -76.86350 | 1843 ft | 168 kts | 180° |
| 2026-04-29 21:25 | 38.96811 | -76.86369 | 1855 ft | 171 kts | 180° |
| 2026-04-29 21:25 | 38.95654 | -76.86381 | 1897 ft | 164 kts | 180° |
| 2026-04-29 21:25 | 38.94557 | -76.86386 | 1873 ft | 149 kts | 180° |
| 2026-04-29 21:26 | 38.93526 | -76.86389 | 1843 ft | 145 kts | 179° |
| 2026-04-29 21:26 | 38.92505 | -76.86389 | 1860 ft | 146 kts | 179° |
| 2026-04-29 21:26 | 38.91489 | -76.86388 | 1845 ft | 146 kts | 179° |
| 2026-04-29 21:26 | 38.90460 | -76.86386 | 1839 ft | 148 kts | 179° |
| 2026-04-29 21:27 | 38.89411 | -76.86385 | 1704 ft | 153 kts | 179° |
| 2026-04-29 21:27 | 38.88351 | -76.86388 | 1472 ft | 149 kts | 178° |
| 2026-04-29 21:27 | 38.87314 | -76.86382 | 1262 ft | 149 kts | 178° |
| 2026-04-29 21:27 | 38.86267 | -76.86382 | 1069 ft | 152 kts | 179° |
| 2026-04-29 21:28 | 38.85214 | -76.86372 | 864 ft | 149 kts | 176° |
| 2026-04-29 21:28 | 38.84193 | -76.86362 | 673 ft | 145 kts | 179° |
| 2026-04-29 21:28 | 38.83157 | -76.86360 | 474 ft | 152 kts | 178° |
| 2026-04-29 21:28 | 38.82114 | -76.86367 | 290 ft | 144 kts | 179° |
| 2026-04-29 21:29 | 38.81220 | -76.86361 | 274 ft | 93 kts | 179° |
| 2026-04-29 21:29 | 38.80956 | -76.86317 | 272 ft | 17 kts | 108° |
| 2026-04-29 21:29 | 38.80948 | -76.86238 | 271 ft | 0 kts | 89° |
| 2026-04-29 21:44 | 38.80948 | -76.86237 | 271 ft | 1 kts | 89° |
| 2026-04-29 21:44 | 38.80999 | -76.86179 | 272 ft | 25 kts | 5° |
| 2026-04-29 21:45 | 38.81481 | -76.86179 | 279 ft | 97 kts | 359° |
| 2026-04-29 21:45 | 38.82073 | -76.86179 | 283 ft | 68 kts | 359° |
| 2026-04-29 21:45 | 38.82399 | -76.86176 | 278 ft | 16 kts | 354° |
| 2026-04-29 21:45 | 38.82436 | -76.86207 | 277 ft | 0 kts | 297° |
| 2026-04-29 21:46 | 38.82436 | -76.86209 | 277 ft | 0 kts | 293° |
| 2026-04-29 21:46 | 38.82439 | -76.86216 | 277 ft | 0 kts | 290° |
| 2026-04-29 21:46 | 38.82439 | -76.86217 | 277 ft | 0 kts | 290° |
| 2026-04-29 21:46 | 38.82441 | -76.86226 | 277 ft | 9 kts | 281° |
| 2026-04-29 21:47 | 38.82412 | -76.86361 | 277 ft | 12 kts | 196° |
| 2026-04-29 21:47 | 38.82227 | -76.86366 | 281 ft | 62 kts | 177° |
| 2026-04-29 21:47 | 38.81486 | -76.86360 | 279 ft | 148 kts | 178° |
| 2026-04-29 21:47 | 38.80229 | -76.86350 | 358 ft | 205 kts | 178° |
| 2026-04-29 21:48 | 38.78804 | -76.86338 | 1024 ft | 224 kts | 178° |
| 2026-04-29 21:48 | 38.77152 | -76.86269 | 1458 ft | 248 kts | 176° |
| 2026-04-29 21:48 | 38.75247 | -76.86356 | 1197 ft | 311 kts | 186° |
| 2026-04-29 21:48 | 38.73108 | -76.86361 | 875 ft | 298 kts | 173° |
| 2026-04-29 21:49 | 38.71235 | -76.86325 | 1413 ft | 254 kts | 188° |
| 2026-04-29 21:49 | 38.69710 | -76.86903 | 264 ft | 283 kts | 198° |